sensor_id;sensor_type;location;lat;lon;timestamp;P1;durP1;ratioP1;P2;durP2;ratioP2
17631;SDS011;8934;51.194;17.150;2023-04-24T00:02:13;17.50;;;10.95;;
17631;SDS011;8934;51.194;17.150;2023-04-24T00:05:01;18.42;;;11.80;;
17631;SDS011;8934;51.194;17.150;2023-04-24T00:07:50;17.80;;;11.77;;
17631;SDS011;8934;51.194;17.150;2023-04-24T00:10:40;17.45;;;11.85;;
17631;SDS011;8934;51.194;17.150;2023-04-24T00:13:28;16.42;;;11.20;;
17631;SDS011;8934;51.194;17.150;2023-04-24T00:16:16;16.75;;;10.93;;
17631;SDS011;8934;51.194;17.150;2023-04-24T00:19:04;16.48;;;11.23;;
17631;SDS011;8934;51.194;17.150;2023-04-24T00:21:52;18.27;;;12.05;;
17631;SDS011;8934;51.194;17.150;2023-04-24T00:24:40;15.68;;;10.63;;
17631;SDS011;8934;51.194;17.150;2023-04-24T00:27:29;14.35;;;10.07;;
17631;SDS011;8934;51.194;17.150;2023-04-24T00:30:17;17.67;;;11.25;;
17631;SDS011;8934;51.194;17.150;2023-04-24T00:33:05;15.48;;;10.98;;
17631;SDS011;8934;51.194;17.150;2023-04-24T00:35:52;14.20;;;10.00;;
17631;SDS011;8934;51.194;17.150;2023-04-24T00:38:40;20.00;;;11.07;;
17631;SDS011;8934;51.194;17.150;2023-04-24T00:41:27;13.48;;;9.60;;
17631;SDS011;8934;51.194;17.150;2023-04-24T00:44:17;15.00;;;10.38;;
17631;SDS011;8934;51.194;17.150;2023-04-24T00:47:05;15.48;;;10.40;;
17631;SDS011;8934;51.194;17.150;2023-04-24T00:49:53;13.85;;;9.07;;
17631;SDS011;8934;51.194;17.150;2023-04-24T00:52:41;15.68;;;11.55;;
17631;SDS011;8934;51.194;17.150;2023-04-24T00:55:29;12.30;;;9.05;;
17631;SDS011;8934;51.194;17.150;2023-04-24T00:58:17;15.05;;;10.48;;
17631;SDS011;8934;51.194;17.150;2023-04-24T01:01:06;15.75;;;10.55;;
17631;SDS011;8934;51.194;17.150;2023-04-24T01:03:54;18.60;;;11.23;;
17631;SDS011;8934;51.194;17.150;2023-04-24T01:06:44;16.52;;;11.57;;
17631;SDS011;8934;51.194;17.150;2023-04-24T01:09:32;13.77;;;9.52;;
17631;SDS011;8934;51.194;17.150;2023-04-24T01:12:20;16.25;;;10.93;;
17631;SDS011;8934;51.194;17.150;2023-04-24T01:15:08;15.07;;;10.27;;
17631;SDS011;8934;51.194;17.150;2023-04-24T01:17:58;14.82;;;10.23;;
17631;SDS011;8934;51.194;17.150;2023-04-24T01:20:46;13.55;;;10.15;;
17631;SDS011;8934;51.194;17.150;2023-04-24T01:23:36;14.65;;;9.82;;
17631;SDS011;8934;51.194;17.150;2023-04-24T01:26:24;14.65;;;8.88;;
17631;SDS011;8934;51.194;17.150;2023-04-24T01:29:12;19.08;;;11.18;;
17631;SDS011;8934;51.194;17.150;2023-04-24T01:32:02;16.08;;;10.60;;
17631;SDS011;8934;51.194;17.150;2023-04-24T01:34:50;14.38;;;9.95;;
17631;SDS011;8934;51.194;17.150;2023-04-24T01:37:37;15.50;;;9.55;;
17631;SDS011;8934;51.194;17.150;2023-04-24T01:40:27;16.52;;;10.90;;
17631;SDS011;8934;51.194;17.150;2023-04-24T01:43:15;13.57;;;10.20;;
17631;SDS011;8934;51.194;17.150;2023-04-24T01:46:04;13.13;;;10.05;;
17631;SDS011;8934;51.194;17.150;2023-04-24T01:48:54;14.75;;;9.85;;
17631;SDS011;8934;51.194;17.150;2023-04-24T01:51:42;15.13;;;10.75;;
17631;SDS011;8934;51.194;17.150;2023-04-24T01:54:30;18.45;;;13.00;;
17631;SDS011;8934;51.194;17.150;2023-04-24T01:57:19;15.20;;;11.43;;
17631;SDS011;8934;51.194;17.150;2023-04-24T02:00:07;18.40;;;11.40;;
17631;SDS011;8934;51.194;17.150;2023-04-24T02:02:57;15.02;;;10.73;;
17631;SDS011;8934;51.194;17.150;2023-04-24T02:05:45;17.33;;;11.82;;
17631;SDS011;8934;51.194;17.150;2023-04-24T02:08:33;16.27;;;12.13;;
17631;SDS011;8934;51.194;17.150;2023-04-24T02:11:20;19.17;;;13.50;;
17631;SDS011;8934;51.194;17.150;2023-04-24T02:14:10;14.93;;;11.68;;
17631;SDS011;8934;51.194;17.150;2023-04-24T02:16:58;18.38;;;12.48;;
17631;SDS011;8934;51.194;17.150;2023-04-24T02:19:46;17.60;;;12.48;;
17631;SDS011;8934;51.194;17.150;2023-04-24T02:22:35;18.65;;;14.25;;
17631;SDS011;8934;51.194;17.150;2023-04-24T02:25:23;21.73;;;12.95;;
17631;SDS011;8934;51.194;17.150;2023-04-24T02:28:13;18.50;;;11.80;;
17631;SDS011;8934;51.194;17.150;2023-04-24T02:31:02;18.70;;;11.25;;
17631;SDS011;8934;51.194;17.150;2023-04-24T02:33:50;16.95;;;11.60;;
17631;SDS011;8934;51.194;17.150;2023-04-24T02:36:38;17.55;;;12.63;;
17631;SDS011;8934;51.194;17.150;2023-04-24T02:39:26;18.92;;;11.68;;
17631;SDS011;8934;51.194;17.150;2023-04-24T02:42:14;17.60;;;12.90;;
17631;SDS011;8934;51.194;17.150;2023-04-24T02:45:01;16.88;;;11.82;;
17631;SDS011;8934;51.194;17.150;2023-04-24T02:47:52;16.83;;;11.27;;
17631;SDS011;8934;51.194;17.150;2023-04-24T02:50:41;15.10;;;10.77;;
17631;SDS011;8934;51.194;17.150;2023-04-24T02:53:28;14.45;;;10.73;;
17631;SDS011;8934;51.194;17.150;2023-04-24T02:56:16;15.98;;;11.52;;
17631;SDS011;8934;51.194;17.150;2023-04-24T02:59:04;20.80;;;14.35;;
17631;SDS011;8934;51.194;17.150;2023-04-24T03:01:52;17.90;;;12.30;;
17631;SDS011;8934;51.194;17.150;2023-04-24T03:04:42;21.83;;;13.85;;
17631;SDS011;8934;51.194;17.150;2023-04-24T03:07:30;23.08;;;13.23;;
17631;SDS011;8934;51.194;17.150;2023-04-24T03:10:18;20.55;;;13.75;;
17631;SDS011;8934;51.194;17.150;2023-04-24T03:13:06;17.33;;;11.45;;
17631;SDS011;8934;51.194;17.150;2023-04-24T03:15:54;19.42;;;12.60;;
17631;SDS011;8934;51.194;17.150;2023-04-24T03:18:41;21.63;;;14.63;;
17631;SDS011;8934;51.194;17.150;2023-04-24T03:21:30;19.38;;;12.30;;
17631;SDS011;8934;51.194;17.150;2023-04-24T03:24:19;22.58;;;15.68;;
17631;SDS011;8934;51.194;17.150;2023-04-24T03:27:08;23.33;;;16.00;;
17631;SDS011;8934;51.194;17.150;2023-04-24T03:30:25;22.63;;;14.77;;
17631;SDS011;8934;51.194;17.150;2023-04-24T03:33:17;20.98;;;13.70;;
17631;SDS011;8934;51.194;17.150;2023-04-24T03:36:18;22.15;;;16.20;;
17631;SDS011;8934;51.194;17.150;2023-04-24T03:39:07;23.08;;;16.48;;
17631;SDS011;8934;51.194;17.150;2023-04-24T03:41:57;19.13;;;14.15;;
17631;SDS011;8934;51.194;17.150;2023-04-24T03:44:57;21.80;;;14.82;;
17631;SDS011;8934;51.194;17.150;2023-04-24T03:47:49;21.15;;;15.20;;
17631;SDS011;8934;51.194;17.150;2023-04-24T03:50:37;20.67;;;14.60;;
17631;SDS011;8934;51.194;17.150;2023-04-24T03:53:27;21.80;;;15.05;;
17631;SDS011;8934;51.194;17.150;2023-04-24T03:56:16;19.50;;;14.05;;
17631;SDS011;8934;51.194;17.150;2023-04-24T03:59:05;24.00;;;14.13;;
17631;SDS011;8934;51.194;17.150;2023-04-24T04:01:54;20.50;;;15.38;;
17631;SDS011;8934;51.194;17.150;2023-04-24T04:04:41;20.77;;;14.45;;
17631;SDS011;8934;51.194;17.150;2023-04-24T04:07:29;20.92;;;13.95;;
17631;SDS011;8934;51.194;17.150;2023-04-24T04:10:17;21.25;;;14.43;;
17631;SDS011;8934;51.194;17.150;2023-04-24T04:13:06;22.35;;;15.95;;
17631;SDS011;8934;51.194;17.150;2023-04-24T04:15:54;22.42;;;15.73;;
17631;SDS011;8934;51.194;17.150;2023-04-24T04:18:42;21.48;;;14.63;;
17631;SDS011;8934;51.194;17.150;2023-04-24T04:21:30;24.65;;;15.38;;
17631;SDS011;8934;51.194;17.150;2023-04-24T04:24:49;24.45;;;15.88;;
17631;SDS011;8934;51.194;17.150;2023-04-24T04:27:41;20.77;;;15.25;;
17631;SDS011;8934;51.194;17.150;2023-04-24T04:30:32;19.98;;;13.82;;
17631;SDS011;8934;51.194;17.150;2023-04-24T04:33:22;21.40;;;15.38;;
17631;SDS011;8934;51.194;17.150;2023-04-24T04:36:09;23.40;;;16.48;;
17631;SDS011;8934;51.194;17.150;2023-04-24T04:39:03;23.10;;;16.50;;
17631;SDS011;8934;51.194;17.150;2023-04-24T04:42:07;20.90;;;14.98;;
17631;SDS011;8934;51.194;17.150;2023-04-24T04:44:58;23.52;;;15.57;;
17631;SDS011;8934;51.194;17.150;2023-04-24T04:47:58;22.40;;;15.77;;
17631;SDS011;8934;51.194;17.150;2023-04-24T04:50:49;27.25;;;16.73;;
17631;SDS011;8934;51.194;17.150;2023-04-24T04:53:42;25.95;;;16.92;;
17631;SDS011;8934;51.194;17.150;2023-04-24T04:56:30;27.10;;;17.48;;
17631;SDS011;8934;51.194;17.150;2023-04-24T04:59:19;23.40;;;16.45;;
17631;SDS011;8934;51.194;17.150;2023-04-24T05:02:12;20.58;;;15.77;;
17631;SDS011;8934;51.194;17.150;2023-04-24T05:05:01;23.45;;;16.05;;
17631;SDS011;8934;51.194;17.150;2023-04-24T05:07:49;19.55;;;15.68;;
17631;SDS011;8934;51.194;17.150;2023-04-24T05:10:37;22.20;;;15.55;;
17631;SDS011;8934;51.194;17.150;2023-04-24T05:13:26;18.88;;;13.90;;
17631;SDS011;8934;51.194;17.150;2023-04-24T05:16:33;20.00;;;15.75;;
17631;SDS011;8934;51.194;17.150;2023-04-24T05:19:24;19.73;;;13.50;;
17631;SDS011;8934;51.194;17.150;2023-04-24T05:22:13;19.95;;;12.88;;
17631;SDS011;8934;51.194;17.150;2023-04-24T05:25:07;18.85;;;13.25;;
17631;SDS011;8934;51.194;17.150;2023-04-24T05:28:18;17.48;;;12.57;;
17631;SDS011;8934;51.194;17.150;2023-04-24T05:34:03;20.35;;;12.77;;
17631;SDS011;8934;51.194;17.150;2023-04-24T05:36:52;16.00;;;11.23;;
17631;SDS011;8934;51.194;17.150;2023-04-24T05:39:41;14.75;;;11.20;;
17631;SDS011;8934;51.194;17.150;2023-04-24T05:42:29;18.15;;;12.25;;
17631;SDS011;8934;51.194;17.150;2023-04-24T05:45:17;14.18;;;10.77;;
17631;SDS011;8934;51.194;17.150;2023-04-24T05:48:04;18.88;;;11.10;;
17631;SDS011;8934;51.194;17.150;2023-04-24T05:50:52;12.40;;;9.20;;
17631;SDS011;8934;51.194;17.150;2023-04-24T05:53:42;17.65;;;10.95;;
17631;SDS011;8934;51.194;17.150;2023-04-24T05:56:31;14.57;;;10.93;;
17631;SDS011;8934;51.194;17.150;2023-04-24T05:59:21;13.70;;;9.55;;
17631;SDS011;8934;51.194;17.150;2023-04-24T06:02:09;13.82;;;10.38;;
17631;SDS011;8934;51.194;17.150;2023-04-24T06:04:57;18.30;;;11.13;;
17631;SDS011;8934;51.194;17.150;2023-04-24T06:07:45;12.95;;;9.77;;
17631;SDS011;8934;51.194;17.150;2023-04-24T06:10:34;14.70;;;9.85;;
17631;SDS011;8934;51.194;17.150;2023-04-24T06:13:24;15.02;;;10.55;;
17631;SDS011;8934;51.194;17.150;2023-04-24T06:16:32;16.42;;;10.30;;
17631;SDS011;8934;51.194;17.150;2023-04-24T06:19:27;11.65;;;9.10;;
17631;SDS011;8934;51.194;17.150;2023-04-24T06:22:15;16.40;;;9.88;;
17631;SDS011;8934;51.194;17.150;2023-04-24T06:25:03;14.25;;;9.95;;
17631;SDS011;8934;51.194;17.150;2023-04-24T06:27:52;13.55;;;9.32;;
17631;SDS011;8934;51.194;17.150;2023-04-24T06:30:41;10.15;;;7.82;;
17631;SDS011;8934;51.194;17.150;2023-04-24T06:33:30;13.23;;;8.32;;
17631;SDS011;8934;51.194;17.150;2023-04-24T06:36:17;10.32;;;7.43;;
17631;SDS011;8934;51.194;17.150;2023-04-24T06:39:05;9.07;;;7.68;;
17631;SDS011;8934;51.194;17.150;2023-04-24T06:41:52;9.20;;;6.72;;
17631;SDS011;8934;51.194;17.150;2023-04-24T06:44:42;10.23;;;6.30;;
17631;SDS011;8934;51.194;17.150;2023-04-24T06:47:32;8.25;;;6.00;;
17631;SDS011;8934;51.194;17.150;2023-04-24T06:50:19;7.32;;;6.10;;
17631;SDS011;8934;51.194;17.150;2023-04-24T06:53:07;7.75;;;5.57;;
17631;SDS011;8934;51.194;17.150;2023-04-24T06:55:57;8.05;;;6.20;;
17631;SDS011;8934;51.194;17.150;2023-04-24T06:58:44;9.23;;;6.45;;
17631;SDS011;8934;51.194;17.150;2023-04-24T07:01:32;10.70;;;6.53;;
17631;SDS011;8934;51.194;17.150;2023-04-24T07:04:21;9.70;;;6.38;;
17631;SDS011;8934;51.194;17.150;2023-04-24T07:07:11;8.23;;;6.50;;
17631;SDS011;8934;51.194;17.150;2023-04-24T07:10:00;8.20;;;5.90;;
17631;SDS011;8934;51.194;17.150;2023-04-24T07:12:49;10.13;;;5.88;;
17631;SDS011;8934;51.194;17.150;2023-04-24T07:15:37;11.40;;;5.95;;
17631;SDS011;8934;51.194;17.150;2023-04-24T07:18:26;7.72;;;5.95;;
17631;SDS011;8934;51.194;17.150;2023-04-24T07:21:15;7.53;;;6.30;;
17631;SDS011;8934;51.194;17.150;2023-04-24T07:24:05;7.88;;;6.10;;
17631;SDS011;8934;51.194;17.150;2023-04-24T07:26:55;8.63;;;6.38;;
17631;SDS011;8934;51.194;17.150;2023-04-24T07:29:42;10.00;;;5.93;;
17631;SDS011;8934;51.194;17.150;2023-04-24T07:32:31;9.52;;;6.43;;
17631;SDS011;8934;51.194;17.150;2023-04-24T07:35:19;10.18;;;6.93;;
17631;SDS011;8934;51.194;17.150;2023-04-24T07:38:08;7.55;;;6.55;;
17631;SDS011;8934;51.194;17.150;2023-04-24T07:40:55;8.07;;;6.57;;
17631;SDS011;8934;51.194;17.150;2023-04-24T07:43:43;8.05;;;6.43;;
17631;SDS011;8934;51.194;17.150;2023-04-24T07:46:31;10.10;;;6.47;;
17631;SDS011;8934;51.194;17.150;2023-04-24T07:49:19;8.05;;;6.88;;
17631;SDS011;8934;51.194;17.150;2023-04-24T07:52:07;9.77;;;6.65;;
17631;SDS011;8934;51.194;17.150;2023-04-24T07:54:56;8.65;;;6.78;;
17631;SDS011;8934;51.194;17.150;2023-04-24T07:57:46;6.78;;;6.07;;
17631;SDS011;8934;51.194;17.150;2023-04-24T08:00:33;10.40;;;6.13;;
17631;SDS011;8934;51.194;17.150;2023-04-24T08:03:21;11.40;;;7.07;;
17631;SDS011;8934;51.194;17.150;2023-04-24T08:06:09;7.38;;;6.60;;
17631;SDS011;8934;51.194;17.150;2023-04-24T08:08:57;8.77;;;6.15;;
17631;SDS011;8934;51.194;17.150;2023-04-24T08:11:47;10.68;;;6.65;;
17631;SDS011;8934;51.194;17.150;2023-04-24T08:14:35;9.60;;;6.35;;
17631;SDS011;8934;51.194;17.150;2023-04-24T08:17:24;7.93;;;5.90;;
17631;SDS011;8934;51.194;17.150;2023-04-24T08:20:11;10.98;;;7.07;;
17631;SDS011;8934;51.194;17.150;2023-04-24T08:23:00;10.25;;;6.75;;
17631;SDS011;8934;51.194;17.150;2023-04-24T08:25:48;8.52;;;5.72;;
17631;SDS011;8934;51.194;17.150;2023-04-24T08:28:37;7.70;;;5.18;;
17631;SDS011;8934;51.194;17.150;2023-04-24T08:31:25;10.50;;;7.05;;
17631;SDS011;8934;51.194;17.150;2023-04-24T08:34:13;8.77;;;6.38;;
17631;SDS011;8934;51.194;17.150;2023-04-24T08:37:00;8.60;;;6.32;;
17631;SDS011;8934;51.194;17.150;2023-04-24T08:39:49;9.93;;;6.38;;
17631;SDS011;8934;51.194;17.150;2023-04-24T08:42:37;11.10;;;7.07;;
17631;SDS011;8934;51.194;17.150;2023-04-24T08:45:26;10.77;;;7.32;;
17631;SDS011;8934;51.194;17.150;2023-04-24T08:48:14;10.10;;;7.78;;
17631;SDS011;8934;51.194;17.150;2023-04-24T08:51:14;11.77;;;8.20;;
17631;SDS011;8934;51.194;17.150;2023-04-24T08:54:03;11.27;;;8.43;;
17631;SDS011;8934;51.194;17.150;2023-04-24T08:56:53;9.90;;;8.07;;
17631;SDS011;8934;51.194;17.150;2023-04-24T08:59:47;13.18;;;8.18;;
17631;SDS011;8934;51.194;17.150;2023-04-24T09:02:37;8.32;;;7.25;;
17631;SDS011;8934;51.194;17.150;2023-04-24T09:05:29;11.23;;;7.88;;
17631;SDS011;8934;51.194;17.150;2023-04-24T09:08:17;10.90;;;6.95;;
17631;SDS011;8934;51.194;17.150;2023-04-24T09:11:06;9.23;;;7.55;;
17631;SDS011;8934;51.194;17.150;2023-04-24T09:13:55;8.13;;;6.22;;
17631;SDS011;8934;51.194;17.150;2023-04-24T09:16:43;7.85;;;6.18;;
17631;SDS011;8934;51.194;17.150;2023-04-24T09:19:33;8.57;;;7.00;;
17631;SDS011;8934;51.194;17.150;2023-04-24T09:22:20;11.43;;;8.20;;
17631;SDS011;8934;51.194;17.150;2023-04-24T09:25:08;8.90;;;5.80;;
17631;SDS011;8934;51.194;17.150;2023-04-24T09:28:00;9.38;;;6.97;;
17631;SDS011;8934;51.194;17.150;2023-04-24T09:30:51;8.88;;;7.00;;
17631;SDS011;8934;51.194;17.150;2023-04-24T09:33:59;9.27;;;7.15;;
17631;SDS011;8934;51.194;17.150;2023-04-24T09:36:54;7.35;;;6.53;;
17631;SDS011;8934;51.194;17.150;2023-04-24T09:39:42;9.70;;;6.82;;
17631;SDS011;8934;51.194;17.150;2023-04-24T09:42:30;8.35;;;6.45;;
17631;SDS011;8934;51.194;17.150;2023-04-24T09:45:17;11.40;;;7.25;;
17631;SDS011;8934;51.194;17.150;2023-04-24T09:48:05;8.10;;;7.30;;
17631;SDS011;8934;51.194;17.150;2023-04-24T09:50:56;10.15;;;6.97;;
17631;SDS011;8934;51.194;17.150;2023-04-24T09:56:42;8.82;;;6.85;;
17631;SDS011;8934;51.194;17.150;2023-04-24T09:59:31;9.55;;;7.45;;
17631;SDS011;8934;51.194;17.150;2023-04-24T10:02:25;9.75;;;6.43;;
17631;SDS011;8934;51.194;17.150;2023-04-24T10:05:13;7.25;;;6.18;;
17631;SDS011;8934;51.194;17.150;2023-04-24T10:08:02;9.30;;;7.85;;
17631;SDS011;8934;51.194;17.150;2023-04-24T10:10:53;9.95;;;8.35;;
17631;SDS011;8934;51.194;17.150;2023-04-24T10:13:41;16.27;;;6.82;;
17631;SDS011;8934;51.194;17.150;2023-04-24T10:16:30;5.90;;;5.07;;
17631;SDS011;8934;51.194;17.150;2023-04-24T10:19:19;6.57;;;5.15;;
17631;SDS011;8934;51.194;17.150;2023-04-24T10:22:06;6.43;;;5.32;;
17631;SDS011;8934;51.194;17.150;2023-04-24T10:24:54;7.43;;;5.13;;
17631;SDS011;8934;51.194;17.150;2023-04-24T10:27:44;6.97;;;5.22;;
17631;SDS011;8934;51.194;17.150;2023-04-24T10:30:34;7.63;;;6.82;;
17631;SDS011;8934;51.194;17.150;2023-04-24T10:33:22;8.35;;;6.07;;
17631;SDS011;8934;51.194;17.150;2023-04-24T10:36:10;8.40;;;7.10;;
17631;SDS011;8934;51.194;17.150;2023-04-24T10:39:02;8.13;;;6.30;;
17631;SDS011;8934;51.194;17.150;2023-04-24T10:41:53;8.93;;;5.85;;
17631;SDS011;8934;51.194;17.150;2023-04-24T10:44:44;7.90;;;5.75;;
17631;SDS011;8934;51.194;17.150;2023-04-24T10:47:39;7.88;;;6.07;;
17631;SDS011;8934;51.194;17.150;2023-04-24T10:50:28;6.70;;;6.00;;
17631;SDS011;8934;51.194;17.150;2023-04-24T10:53:28;7.00;;;5.65;;
17631;SDS011;8934;51.194;17.150;2023-04-24T10:56:17;5.80;;;5.18;;
17631;SDS011;8934;51.194;17.150;2023-04-24T10:59:07;5.70;;;5.00;;
17631;SDS011;8934;51.194;17.150;2023-04-24T11:01:57;7.40;;;5.72;;
17631;SDS011;8934;51.194;17.150;2023-04-24T11:04:44;6.38;;;5.65;;
17631;SDS011;8934;51.194;17.150;2023-04-24T11:07:42;7.85;;;5.65;;
17631;SDS011;8934;51.194;17.150;2023-04-24T11:11:00;11.30;;;7.33;;
17631;SDS011;8934;51.194;17.150;2023-04-24T11:14:02;8.35;;;6.78;;
17631;SDS011;8934;51.194;17.150;2023-04-24T11:16:53;7.47;;;6.05;;
17631;SDS011;8934;51.194;17.150;2023-04-24T11:19:43;11.02;;;7.60;;
17631;SDS011;8934;51.194;17.150;2023-04-24T11:22:40;10.05;;;7.20;;
17631;SDS011;8934;51.194;17.150;2023-04-24T11:25:30;9.32;;;7.40;;
17631;SDS011;8934;51.194;17.150;2023-04-24T11:28:18;9.25;;;7.57;;
17631;SDS011;8934;51.194;17.150;2023-04-24T11:34:21;8.45;;;6.57;;
17631;SDS011;8934;51.194;17.150;2023-04-24T11:37:10;7.30;;;5.60;;
17631;SDS011;8934;51.194;17.150;2023-04-24T11:39:58;6.63;;;5.60;;
17631;SDS011;8934;51.194;17.150;2023-04-24T11:42:48;7.50;;;6.03;;
17631;SDS011;8934;51.194;17.150;2023-04-24T11:45:36;8.98;;;6.38;;
17631;SDS011;8934;51.194;17.150;2023-04-24T11:48:24;6.07;;;5.47;;
17631;SDS011;8934;51.194;17.150;2023-04-24T11:51:11;7.13;;;5.68;;
17631;SDS011;8934;51.194;17.150;2023-04-24T11:54:01;8.55;;;6.15;;
17631;SDS011;8934;51.194;17.150;2023-04-24T11:56:49;7.25;;;6.00;;
17631;SDS011;8934;51.194;17.150;2023-04-24T11:59:37;7.00;;;6.03;;
17631;SDS011;8934;51.194;17.150;2023-04-24T12:02:25;7.30;;;6.35;;
17631;SDS011;8934;51.194;17.150;2023-04-24T12:05:18;8.05;;;6.60;;
17631;SDS011;8934;51.194;17.150;2023-04-24T12:08:07;7.22;;;5.78;;
17631;SDS011;8934;51.194;17.150;2023-04-24T12:10:56;7.97;;;6.63;;
17631;SDS011;8934;51.194;17.150;2023-04-24T12:13:45;6.95;;;6.25;;
17631;SDS011;8934;51.194;17.150;2023-04-24T12:16:33;8.63;;;6.88;;
17631;SDS011;8934;51.194;17.150;2023-04-24T12:19:21;9.75;;;6.75;;
17631;SDS011;8934;51.194;17.150;2023-04-24T12:22:09;9.30;;;6.78;;
17631;SDS011;8934;51.194;17.150;2023-04-24T12:24:57;8.35;;;6.72;;
17631;SDS011;8934;51.194;17.150;2023-04-24T12:27:52;7.82;;;6.75;;
17631;SDS011;8934;51.194;17.150;2023-04-24T12:30:42;6.95;;;6.25;;
17631;SDS011;8934;51.194;17.150;2023-04-24T12:33:32;9.38;;;6.40;;
17631;SDS011;8934;51.194;17.150;2023-04-24T12:36:21;6.47;;;5.88;;
17631;SDS011;8934;51.194;17.150;2023-04-24T12:39:14;9.27;;;6.20;;
17631;SDS011;8934;51.194;17.150;2023-04-24T12:42:02;6.55;;;5.05;;
17631;SDS011;8934;51.194;17.150;2023-04-24T12:44:55;6.88;;;4.97;;
17631;SDS011;8934;51.194;17.150;2023-04-24T12:47:43;7.38;;;6.25;;
17631;SDS011;8934;51.194;17.150;2023-04-24T12:50:31;7.88;;;5.40;;
17631;SDS011;8934;51.194;17.150;2023-04-24T12:53:19;8.80;;;5.65;;
17631;SDS011;8934;51.194;17.150;2023-04-24T12:56:07;8.25;;;5.85;;
17631;SDS011;8934;51.194;17.150;2023-04-24T12:58:54;7.03;;;6.32;;
17631;SDS011;8934;51.194;17.150;2023-04-24T13:01:43;6.90;;;6.20;;
17631;SDS011;8934;51.194;17.150;2023-04-24T13:04:31;8.65;;;6.05;;
17631;SDS011;8934;51.194;17.150;2023-04-24T13:07:19;6.88;;;6.18;;
17631;SDS011;8934;51.194;17.150;2023-04-24T13:10:07;8.25;;;6.28;;
17631;SDS011;8934;51.194;17.150;2023-04-24T13:12:55;6.68;;;5.78;;
17631;SDS011;8934;51.194;17.150;2023-04-24T13:15:43;9.05;;;6.20;;
17631;SDS011;8934;51.194;17.150;2023-04-24T13:18:32;8.90;;;8.00;;
17631;SDS011;8934;51.194;17.150;2023-04-24T13:21:20;10.75;;;8.13;;
17631;SDS011;8934;51.194;17.150;2023-04-24T13:24:07;7.70;;;5.88;;
17631;SDS011;8934;51.194;17.150;2023-04-24T13:26:56;4.93;;;3.90;;
17631;SDS011;8934;51.194;17.150;2023-04-24T13:29:44;3.47;;;2.72;;
17631;SDS011;8934;51.194;17.150;2023-04-24T13:32:32;2.60;;;2.30;;
17631;SDS011;8934;51.194;17.150;2023-04-24T13:35:22;2.90;;;2.50;;
17631;SDS011;8934;51.194;17.150;2023-04-24T13:38:10;3.35;;;2.17;;
17631;SDS011;8934;51.194;17.150;2023-04-24T13:40:57;2.22;;;2.03;;
17631;SDS011;8934;51.194;17.150;2023-04-24T13:43:45;3.83;;;1.77;;
17631;SDS011;8934;51.194;17.150;2023-04-24T13:46:33;2.85;;;1.85;;
17631;SDS011;8934;51.194;17.150;2023-04-24T13:49:21;3.78;;;2.03;;
17631;SDS011;8934;51.194;17.150;2023-04-24T13:52:11;2.90;;;2.30;;
17631;SDS011;8934;51.194;17.150;2023-04-24T13:55:00;6.03;;;2.25;;
17631;SDS011;8934;51.194;17.150;2023-04-24T13:57:48;4.32;;;2.30;;
17631;SDS011;8934;51.194;17.150;2023-04-24T14:00:35;2.42;;;1.88;;
17631;SDS011;8934;51.194;17.150;2023-04-24T14:03:23;2.40;;;1.80;;
17631;SDS011;8934;51.194;17.150;2023-04-24T14:06:11;5.28;;;2.20;;
17631;SDS011;8934;51.194;17.150;2023-04-24T14:09:00;2.20;;;1.65;;
17631;SDS011;8934;51.194;17.150;2023-04-24T14:11:48;2.83;;;2.13;;
17631;SDS011;8934;51.194;17.150;2023-04-24T14:14:36;2.10;;;1.48;;
17631;SDS011;8934;51.194;17.150;2023-04-24T14:17:24;3.63;;;2.00;;
17631;SDS011;8934;51.194;17.150;2023-04-24T14:20:11;3.47;;;2.10;;
17631;SDS011;8934;51.194;17.150;2023-04-24T14:22:59;2.63;;;1.92;;
17631;SDS011;8934;51.194;17.150;2023-04-24T14:25:48;2.95;;;1.98;;
17631;SDS011;8934;51.194;17.150;2023-04-24T14:28:38;3.63;;;1.50;;
17631;SDS011;8934;51.194;17.150;2023-04-24T14:31:26;4.43;;;2.05;;
17631;SDS011;8934;51.194;17.150;2023-04-24T14:34:13;1.80;;;1.58;;
17631;SDS011;8934;51.194;17.150;2023-04-24T14:37:02;2.78;;;1.60;;
17631;SDS011;8934;51.194;17.150;2023-04-24T14:39:52;1.48;;;1.38;;
17631;SDS011;8934;51.194;17.150;2023-04-24T14:43:01;2.58;;;1.52;;
17631;SDS011;8934;51.194;17.150;2023-04-24T14:45:48;2.22;;;1.80;;
17631;SDS011;8934;51.194;17.150;2023-04-24T14:48:36;3.65;;;1.92;;
17631;SDS011;8934;51.194;17.150;2023-04-24T14:51:24;2.28;;;1.70;;
17631;SDS011;8934;51.194;17.150;2023-04-24T14:54:12;4.18;;;2.28;;
17631;SDS011;8934;51.194;17.150;2023-04-24T14:57:00;4.53;;;2.20;;
17631;SDS011;8934;51.194;17.150;2023-04-24T14:59:49;3.70;;;2.28;;
17631;SDS011;8934;51.194;17.150;2023-04-24T15:02:39;3.03;;;2.67;;
17631;SDS011;8934;51.194;17.150;2023-04-24T15:05:30;3.80;;;2.40;;
17631;SDS011;8934;51.194;17.150;2023-04-24T15:08:18;2.38;;;2.17;;
17631;SDS011;8934;51.194;17.150;2023-04-24T15:11:06;2.75;;;2.33;;
17631;SDS011;8934;51.194;17.150;2023-04-24T15:13:55;4.05;;;2.55;;
17631;SDS011;8934;51.194;17.150;2023-04-24T15:16:45;5.70;;;2.00;;
17631;SDS011;8934;51.194;17.150;2023-04-24T15:19:33;4.80;;;2.80;;
17631;SDS011;8934;51.194;17.150;2023-04-24T15:22:20;5.28;;;2.72;;
17631;SDS011;8934;51.194;17.150;2023-04-24T15:25:09;5.38;;;2.92;;
17631;SDS011;8934;51.194;17.150;2023-04-24T15:27:57;5.65;;;3.42;;
17631;SDS011;8934;51.194;17.150;2023-04-24T15:30:45;6.63;;;3.83;;
17631;SDS011;8934;51.194;17.150;2023-04-24T15:33:34;4.40;;;3.00;;
17631;SDS011;8934;51.194;17.150;2023-04-24T15:36:21;5.78;;;3.50;;
17631;SDS011;8934;51.194;17.150;2023-04-24T15:39:09;3.90;;;2.83;;
17631;SDS011;8934;51.194;17.150;2023-04-24T15:41:57;6.10;;;3.45;;
17631;SDS011;8934;51.194;17.150;2023-04-24T15:44:46;4.80;;;2.95;;
17631;SDS011;8934;51.194;17.150;2023-04-24T15:47:33;4.75;;;3.22;;
17631;SDS011;8934;51.194;17.150;2023-04-24T15:50:23;5.45;;;3.50;;
17631;SDS011;8934;51.194;17.150;2023-04-24T15:53:10;7.00;;;2.92;;
17631;SDS011;8934;51.194;17.150;2023-04-24T15:55:58;5.70;;;2.72;;
17631;SDS011;8934;51.194;17.150;2023-04-24T15:58:46;4.47;;;2.45;;
17631;SDS011;8934;51.194;17.150;2023-04-24T16:01:34;3.30;;;2.40;;
17631;SDS011;8934;51.194;17.150;2023-04-24T16:04:22;2.97;;;1.88;;
17631;SDS011;8934;51.194;17.150;2023-04-24T16:07:12;2.33;;;1.63;;
17631;SDS011;8934;51.194;17.150;2023-04-24T16:10:00;2.88;;;1.90;;
17631;SDS011;8934;51.194;17.150;2023-04-24T16:12:47;4.43;;;1.77;;
17631;SDS011;8934;51.194;17.150;2023-04-24T16:15:36;5.07;;;1.85;;
17631;SDS011;8934;51.194;17.150;2023-04-24T16:18:24;4.20;;;2.42;;
17631;SDS011;8934;51.194;17.150;2023-04-24T16:21:12;4.65;;;2.40;;
17631;SDS011;8934;51.194;17.150;2023-04-24T16:24:01;3.92;;;2.00;;
17631;SDS011;8934;51.194;17.150;2023-04-24T16:26:49;5.70;;;2.78;;
17631;SDS011;8934;51.194;17.150;2023-04-24T16:29:37;5.93;;;3.03;;
17631;SDS011;8934;51.194;17.150;2023-04-24T16:32:25;8.10;;;3.75;;
17631;SDS011;8934;51.194;17.150;2023-04-24T16:35:13;6.32;;;3.83;;
17631;SDS011;8934;51.194;17.150;2023-04-24T16:38:00;6.00;;;4.60;;
17631;SDS011;8934;51.194;17.150;2023-04-24T16:40:50;5.72;;;4.40;;
17631;SDS011;8934;51.194;17.150;2023-04-24T16:43:38;6.25;;;3.92;;
17631;SDS011;8934;51.194;17.150;2023-04-24T16:46:26;4.63;;;3.63;;
17631;SDS011;8934;51.194;17.150;2023-04-24T16:49:14;6.82;;;4.38;;
17631;SDS011;8934;51.194;17.150;2023-04-24T16:52:02;6.68;;;3.90;;
17631;SDS011;8934;51.194;17.150;2023-04-24T16:54:50;5.15;;;4.13;;
17631;SDS011;8934;51.194;17.150;2023-04-24T16:57:39;5.68;;;4.13;;
17631;SDS011;8934;51.194;17.150;2023-04-24T17:00:26;6.40;;;4.55;;